Time;durP1;ratioP1;P1;durP2;ratioP2;P2;SDS_P1;SDS_P2;PMS_P1;PMS_P2;Temp;Humidity;BMP_temperature;BMP_pressure;BME280_temperature;BME280_humidity;BME280_pressure;Samples;Min_cycle;Max_cycle;Signal;HPM_P1;HPM_P2
2024/03/22 00:01:54;;;;;;;9.23;3.55;;;;;;;7.96;38.41;93959.41;5108832;28;20024;-92
2024/03/22 00:04:21;;;;;;;12.85;5.07;;;;;;;7.87;37.87;93950.56;5091877;28;20024;-92
2024/03/22 00:06:47;;;;;;;8.93;4.18;;;;;;;7.79;37.79;93959.19;5091156;28;20043;-91
2024/03/22 00:09:14;;;;;;;12.43;4.13;;;;;;;7.67;38.38;93951.69;5091858;28;20028;-92
2024/03/22 00:11:42;;;;;;;8.10;3.83;;;;;;;7.65;38.79;93959.16;5092214;28;20028;-91
2024/03/22 00:14:09;;;;;;;7.95;3.83;;;;;;;7.66;39.27;93960.75;5110255;28;20028;-90
2024/03/22 00:16:35;;;;;;;10.80;3.95;;;;;;;7.59;39.23;93963.78;5109268;28;20028;-92
2024/03/22 00:19:01;;;;;;;12.20;5.00;;;;;;;7.55;39.52;93960.13;5091214;28;20031;-91
2024/03/22 00:21:28;;;;;;;12.35;4.93;;;;;;;7.48;39.74;93957.06;5091660;28;20024;-91
2024/03/22 00:23:54;;;;;;;14.15;5.05;;;;;;;7.41;39.92;93954.78;5109156;28;20065;-91
2024/03/22 00:26:20;;;;;;;11.65;4.97;;;;;;;7.31;40.26;93962.91;5090707;28;20024;-91
2024/03/22 00:28:45;;;;;;;10.35;5.00;;;;;;;7.29;40.96;93958.97;5108759;28;20833;-92
2024/03/22 00:31:11;;;;;;;10.70;5.65;;;;;;;7.29;40.87;93961.63;5090871;28;20054;-91
2024/03/22 00:33:37;;;;;;;17.65;5.75;;;;;;;7.26;40.77;93962.19;5108959;28;20113;-92
2024/03/22 00:36:03;;;;;;;16.77;6.03;;;;;;;7.17;41.34;93954.91;5091065;28;20039;-92
2024/03/22 00:38:30;;;;;;;15.07;5.72;;;;;;;7.06;41.69;93972.03;5108517;28;20199;-91
2024/03/22 00:40:56;;;;;;;16.58;6.30;;;;;;;6.96;41.95;93967.69;5089412;28;20052;-92
2024/03/22 00:43:21;;;;;;;16.95;6.57;;;;;;;6.95;42.17;93973.25;5106497;28;20031;-91
2024/03/22 00:45:47;;;;;;;14.93;6.72;;;;;;;6.91;42.16;93962.44;5105711;28;20245;-91
2024/03/22 00:48:13;;;;;;;17.95;7.55;;;;;;;6.89;42.26;93975.19;5088935;28;20035;-92
2024/03/22 00:50:38;;;;;;;21.45;7.88;;;;;;;6.79;42.38;93965.50;5105293;28;20028;-92
2024/03/22 00:53:05;;;;;;;16.83;7.32;;;;;;;6.75;42.29;93969.81;5104858;28;20024;-91
2024/03/22 00:55:31;;;;;;;19.35;7.78;;;;;;;6.72;42.86;93977.56;5082411;28;20044;-92
2024/03/22 00:57:56;;;;;;;16.92;7.78;;;;;;;6.71;41.86;93968.78;5083998;28;20029;-91
2024/03/22 01:00:22;;;;;;;15.52;7.45;;;;;;;6.65;41.42;93962.00;5083962;28;20031;-91
2024/03/22 01:02:49;;;;;;;19.63;7.13;;;;;;;6.56;41.10;93964.50;5086563;28;20227;-91
2024/03/22 01:05:14;;;;;;;12.93;6.78;;;;;;;6.54;42.26;93964.00;5086318;28;20263;-91
2024/03/22 01:07:40;;;;;;;20.05;6.97;;;;;;;6.49;42.39;93966.69;5087434;28;20044;-91
2024/03/22 01:10:05;;;;;;;12.73;5.13;;;;;;;6.40;42.50;93958.59;5086599;28;20016;-90
2024/03/22 01:12:31;;;;;;;13.15;4.97;;;;;;;6.34;42.97;93970.31;5087346;28;20066;-90
2024/03/22 01:14:56;;;;;;;16.48;5.35;;;;;;;6.35;42.37;93965.81;5090147;28;20099;-90
2024/03/22 01:17:22;;;;;;;11.43;5.65;;;;;;;6.34;42.56;93967.69;5090492;28;20016;-90
2024/03/22 01:19:48;;;;;;;18.80;6.78;;;;;;;6.28;43.19;93965.38;5091433;28;20016;-90
2024/03/22 01:22:13;;;;;;;12.48;4.97;;;;;;;6.29;42.92;93961.66;5093365;28;20024;-91
2024/03/22 01:24:38;;;;;;;17.27;5.00;;;;;;;6.28;43.14;93968.81;5093381;28;20012;-90
2024/03/22 01:27:04;;;;;;;13.98;5.13;;;;;;;6.31;43.83;93968.25;5093656;28;20042;-91
2024/03/22 01:29:31;;;;;;;9.68;5.07;;;;;;;6.32;44.50;93966.41;5087821;28;20027;-91
2024/03/22 01:31:58;;;;;;;11.32;5.05;;;;;;;6.30;44.71;93965.88;5087242;28;20019;-90
2024/03/22 01:34:23;;;;;;;11.55;5.28;;;;;;;6.26;44.87;93968.31;5086577;28;20047;-90
2024/03/22 01:36:48;;;;;;;10.90;4.65;;;;;;;6.25;45.47;93963.28;5086836;28;20024;-89
2024/03/22 01:39:15;;;;;;;16.60;6.10;;;;;;;6.26;45.64;93970.16;5088005;28;20027;-90
2024/03/22 01:41:41;;;;;;;8.23;3.95;;;;;;;6.24;45.28;93962.50;5086833;28;20020;-89
2024/03/22 01:44:06;;;;;;;9.95;4.13;;;;;;;6.14;43.96;93949.38;5086509;28;20039;-90
2024/03/22 01:46:32;;;;;;;9.32;4.18;;;;;;;6.14;43.11;93955.47;5085691;28;20031;-90
2024/03/22 01:48:57;;;;;;;11.57;3.97;;;;;;;6.04;43.14;93952.94;5086528;28;20104;-90
2024/03/22 01:51:23;;;;;;;10.77;4.20;;;;;;;6.12;42.71;93962.13;5088536;28;20041;-89
2024/03/22 01:53:51;;;;;;;9.25;4.00;;;;;;;6.17;42.46;93964.72;5091190;28;20215;-93
2024/03/22 01:56:16;;;;;;;14.63;4.45;;;;;;;6.21;42.69;93960.44;5089197;28;20054;-92
2024/03/22 01:58:42;;;;;;;12.68;4.75;;;;;;;6.23;43.29;93956.44;5108674;28;20032;-87
2024/03/22 02:01:08;;;;;;;14.65;4.40;;;;;;;6.22;43.64;93954.06;5091069;28;20322;-89
2024/03/22 02:03:33;;;;;;;10.18;4.25;;;;;;;6.18;44.16;93959.13;5109211;28;20061;-90
2024/03/22 02:05:59;;;;;;;10.68;4.63;;;;;;;6.19;43.85;93958.06;5110280;28;20027;-90
2024/03/22 02:08:24;;;;;;;11.90;4.65;;;;;;;6.31;42.96;93959.50;5092546;28;20016;-90
2024/03/22 02:10:49;;;;;;;16.05;4.68;;;;;;;6.37;42.83;93959.19;5109911;28;20095;-90
2024/03/22 02:13:15;;;;;;;8.32;4.13;;;;;;;6.41;43.17;93954.09;5109016;28;20043;-91
2024/03/22 02:15:40;;;;;;;8.68;4.22;;;;;;;6.46;43.15;93956.69;5109545;28;20322;-90
2024/03/22 02:18:06;;;;;;;17.23;5.32;;;;;;;6.41;43.48;93959.38;5108460;28;20024;-90
2024/03/22 02:20:31;;;;;;;8.38;4.38;;;;;;;6.49;43.40;93955.31;5089199;28;20019;-90
2024/03/22 02:22:56;;;;;;;12.55;4.40;;;;;;;6.45;43.51;93957.75;5088450;28;20062;-90
2024/03/22 02:25:22;;;;;;;10.13;4.80;;;;;;;6.46;43.81;93959.34;5089110;28;20023;-90
2024/03/22 02:27:50;;;;;;;13.23;5.30;;;;;;;6.49;43.38;93961.41;5107856;28;20035;-92
2024/03/22 02:30:16;;;;;;;11.90;5.60;;;;;;;6.51;44.01;93961.91;5110618;28;20046;-93
2024/03/22 02:32:41;;;;;;;10.38;4.82;;;;;;;6.41;44.66;93969.97;5111114;28;20028;-92
2024/03/22 02:35:07;;;;;;;12.65;4.63;;;;;;;6.36;44.91;93970.06;5109756;28;20108;-92
2024/03/22 02:37:33;;;;;;;12.10;4.85;;;;;;;6.38;44.89;93973.19;5113112;28;20019;-93
2024/03/22 02:39:58;;;;;;;8.98;4.57;;;;;;;6.39;44.79;93972.94;5110670;28;20016;-90
2024/03/22 02:42:24;;;;;;;11.65;4.93;;;;;;;6.34;45.31;93967.69;5105520;28;20302;-91
2024/03/22 02:44:49;;;;;;;9.73;4.80;;;;;;;6.32;45.50;93966.41;5106021;28;20011;-91
2024/03/22 02:47:15;;;;;;;10.00;5.25;;;;;;;6.35;45.06;93963.16;5088121;28;20043;-92
2024/03/22 02:49:41;;;;;;;11.25;4.55;;;;;;;6.33;44.76;93971.41;5105541;28;20057;-91
2024/03/22 02:52:06;;;;;;;11.25;5.32;;;;;;;6.30;45.24;93974.59;5105869;28;20126;-91
2024/03/22 02:54:32;;;;;;;9.23;4.60;;;;;;;6.31;45.31;93978.03;5087536;28;20261;-91
2024/03/22 02:56:57;;;;;;;11.07;5.30;;;;;;;6.26;45.83;93978.13;5105839;28;20020;-91
2024/03/22 02:59:26;;;;;;;10.50;4.82;;;;;;;6.25;46.70;93987.09;5105981;28;20016;-91
2024/03/22 03:01:51;;;;;;;13.70;5.35;;;;;;;6.21;46.76;93982.41;5105678;28;20012;-91
2024/03/22 03:04:17;;;;;;;13.52;4.45;;;;;;;6.18;46.91;93992.75;5105824;28;20016;-92
2024/03/22 03:06:42;;;;;;;10.80;5.15;;;;;;;6.16;47.17;93990.38;5104971;28;20028;-90
2024/03/22 03:09:09;;;;;;;8.38;4.43;;;;;;;6.13;47.95;94001.53;5105027;28;20032;-90
2024/03/22 03:11:34;;;;;;;10.27;4.93;;;;;;;6.08;48.28;93995.50;5105354;28;20081;-91
2024/03/22 03:14:00;;;;;;;11.07;4.60;;;;;;;6.01;48.40;93993.22;5105570;28;20314;-92
2024/03/22 03:16:25;;;;;;;13.20;5.40;;;;;;;5.97;48.48;93997.47;5087951;28;20024;-92
2024/03/22 03:18:51;;;;;;;9.98;5.32;;;;;;;5.92;48.86;93998.28;5105801;28;20019;-92
2024/03/22 03:21:16;;;;;;;10.07;4.78;;;;;;;5.81;49.19;93997.59;5106096;28;20039;-93
2024/03/22 03:23:42;;;;;;;11.15;5.53;;;;;;;5.75;49.18;93993.41;5106943;28;20306;-93
2024/03/22 03:26:07;;;;;;;14.25;5.65;;;;;;;5.73;49.27;94003.47;5088983;28;20028;-93
2024/03/22 03:28:32;;;;;;;10.68;4.80;;;;;;;5.63;49.63;94008.88;5089437;28;20383;-92
2024/03/22 03:30:58;;;;;;;17.35;5.55;;;;;;;5.62;50.28;94013.38;5106072;28;20027;-95
2024/03/22 03:33:24;;;;;;;13.35;5.65;;;;;;;5.58;50.69;94007.06;5105333;28;20066;-94
2024/03/22 03:35:49;;;;;;;11.40;5.47;;;;;;;5.55;50.61;94012.88;5087787;28;20028;-93
2024/03/22 03:38:15;;;;;;;11.20;5.75;;;;;;;5.51;50.54;94016.38;5106157;28;20019;-93
2024/03/22 03:40:40;;;;;;;11.70;5.63;;;;;;;5.45;51.02;94010.31;5105266;28;20023;-93
2024/03/22 03:43:06;;;;;;;13.13;5.60;;;;;;;5.40;51.34;94005.88;5087965;28;20031;-93
2024/03/22 03:45:31;;;;;;;10.77;4.93;;;;;;;5.31;51.45;94007.56;5105614;28;20016;-94
2024/03/22 03:47:57;;;;;;;11.50;5.32;;;;;;;5.23;52.09;94010.75;5105675;28;20016;-93
2024/03/22 03:50:22;;;;;;;18.50;5.72;;;;;;;5.18;52.28;94013.44;5105348;28;20024;-91
2024/03/22 03:52:48;;;;;;;11.57;6.15;;;;;;;5.12;52.39;94023.25;5104585;28;20042;-89
2024/03/22 03:55:14;;;;;;;12.15;4.65;;;;;;;5.12;53.05;94031.19;5104569;28;20338;-89
2024/03/22 03:57:39;;;;;;;13.05;5.85;;;;;;;5.07;53.23;94023.31;5104867;28;20109;-90
2024/03/22 04:00:05;;;;;;;16.70;5.78;;;;;;;5.05;53.04;94032.53;5105160;28;20024;-90
2024/03/22 04:02:31;;;;;;;10.20;5.15;;;;;;;4.95;53.27;94028.91;5086812;28;20100;-90
2024/03/22 04:04:56;;;;;;;12.35;6.60;;;;;;;4.96;53.55;94033.13;5104831;28;20024;-89
2024/03/22 04:07:21;;;;;;;11.27;5.30;;;;;;;4.96;53.85;94032.34;5104303;28;20321;-89
2024/03/22 04:09:47;;;;;;;12.23;5.93;;;;;;;4.92;54.03;94037.38;5104452;28;20028;-91
2024/03/22 04:12:13;;;;;;;21.63;6.45;;;;;;;4.89;53.78;94042.44;5104909;28;20032;-92
2024/03/22 04:14:38;;;;;;;12.52;6.20;;;;;;;4.86;53.75;94042.97;5104979;28;20020;-92
2024/03/22 04:17:04;;;;;;;14.27;7.03;;;;;;;4.84;54.20;94032.66;5104895;28;20066;-93
2024/03/22 04:19:29;;;;;;;20.33;8.10;;;;;;;4.77;54.16;94045.38;5086509;28;20070;-92
2024/03/22 04:21:54;;;;;;;15.45;6.80;;;;;;;4.75;54.95;94042.22;5104221;28;20062;-92
2024/03/22 04:24:20;;;;;;;16.38;6.65;;;;;;;4.68;54.81;94047.81;5104580;28;20015;-89
2024/03/22 04:26:45;;;;;;;13.68;6.38;;;;;;;4.70;55.27;94044.88;5104330;28;20031;-90
2024/03/22 04:29:11;;;;;;;15.35;6.05;;;;;;;4.60;55.40;94046.50;5104032;28;20024;-90
2024/03/22 04:31:36;;;;;;;14.25;6.85;;;;;;;4.63;55.46;94042.53;5104103;28;20020;-92
2024/03/22 04:34:02;;;;;;;16.20;7.00;;;;;;;4.52;55.53;94039.16;5103883;28;20024;-92
2024/03/22 04:36:27;;;;;;;15.13;6.82;;;;;;;4.47;55.72;94041.03;5103967;28;20334;-89
2024/03/22 04:38:53;;;;;;;16.40;6.10;;;;;;;4.53;56.01;94045.22;5108556;28;20175;-91
2024/03/22 04:41:18;;;;;;;14.90;6.53;;;;;;;4.49;55.67;94049.47;5090290;28;20023;-90
2024/03/22 04:43:44;;;;;;;20.15;7.05;;;;;;;4.44;55.40;94050.28;5108524;28;20408;-90
2024/03/22 04:46:09;;;;;;;13.43;6.55;;;;;;;4.50;55.27;94058.94;5108325;28;20023;-91
2024/03/22 04:48:35;;;;;;;15.88;6.47;;;;;;;4.54;55.38;94063.44;5090736;28;20049;-90
2024/03/22 04:51:00;;;;;;;15.75;7.93;;;;;;;4.57;55.54;94064.75;5107731;28;20246;-90
2024/03/22 04:53:25;;;;;;;20.73;7.35;;;;;;;4.61;55.40;94068.41;5107919;28;20023;-91
2024/03/22 04:55:51;;;;;;;16.77;6.82;;;;;;;4.69;55.03;94064.44;5108557;28;20051;-91
2024/03/22 04:58:18;;;;;;;11.77;6.55;;;;;;;4.74;54.74;94064.41;5090273;28;20218;-91
2024/03/22 05:00:44;;;;;;;16.15;6.28;;;;;;;4.73;55.04;94065.47;5108627;28;20105;-91
2024/03/22 05:03:10;;;;;;;18.00;6.85;;;;;;;4.71;55.34;94067.59;5108885;28;20215;-91
2024/03/22 05:05:36;;;;;;;21.83;7.20;;;;;;;4.78;55.02;94065.44;5109640;28;20022;-93
2024/03/22 05:08:05;;;;;;;14.27;5.53;;;;;;;4.80;54.67;94071.22;5111039;28;20035;-93
2024/03/22 05:10:31;;;;;;;13.35;5.65;;;;;;;4.80;54.48;94072.06;5096155;28;20030;-91
2024/03/22 05:12:57;;;;;;;22.20;6.85;;;;;;;4.85;55.38;94071.22;5114840;28;20019;-93
2024/03/22 05:15:25;;;;;;;19.38;6.90;;;;;;;4.94;55.49;94079.38;5095422;28;20031;-93
2024/03/22 05:17:51;;;;;;;19.33;7.32;;;;;;;4.98;55.64;94081.19;5113420;28;20091;-92
2024/03/22 05:20:17;;;;;;;28.55;7.60;;;;;;;5.05;54.97;94080.91;5109648;28;20020;-93
2024/03/22 05:22:43;;;;;;;26.70;7.93;;;;;;;5.11;54.93;94081.66;5089804;28;20076;-92
2024/03/22 05:25:09;;;;;;;31.88;9.13;;;;;;;5.15;54.93;94085.31;5107872;28;20091;-89
2024/03/22 05:27:35;;;;;;;26.50;8.93;;;;;;;5.18;54.68;94082.94;5107672;28;20087;-93
2024/03/22 05:30:00;;;;;;;42.58;10.00;;;;;;;5.26;53.94;94086.06;5089724;28;20020;-92
2024/03/22 05:32:26;;;;;;;43.00;9.10;;;;;;;5.29;53.65;94083.69;5107930;28;20027;-93
2024/03/22 05:34:52;;;;;;;49.17;9.93;;;;;;;5.30;53.91;94089.75;5107020;28;20200;-92
2024/03/22 05:37:18;;;;;;;32.33;10.23;;;;;;;5.33;54.11;94090.00;5089878;28;20024;-93
2024/03/22 05:39:43;;;;;;;27.20;9.30;;;;;;;5.46;54.39;94087.81;5107293;28;20103;-91
2024/03/22 05:42:08;;;;;;;35.50;10.23;;;;;;;5.47;53.46;94095.44;5111502;28;20027;-90
2024/03/22 05:44:34;;;;;;;22.80;10.50;;;;;;;5.51;53.72;94100.97;5093227;28;20012;-92
2024/03/22 05:47:00;;;;;;;31.02;10.63;;;;;;;5.58;53.59;94104.91;5109819;28;20016;-92
2024/03/22 05:49:25;;;;;;;26.23;9.88;;;;;;;5.62;52.75;94098.00;5109604;28;20047;-93
2024/03/22 05:51:51;;;;;;;27.35;9.95;;;;;;;5.62;52.42;94102.50;5108492;28;20338;-93
2024/03/22 05:54:17;;;;;;;21.05;9.93;;;;;;;5.68;51.58;94104.03;5094089;28;20097;-91
2024/03/22 05:56:54;;;;;;;24.73;8.75;;;;;;;5.61;52.07;94106.97;5518318;22;20048;-90
2024/03/22 05:59:28;;;;;;;20.00;10.00;;;;;;;5.67;51.25;94110.38;5114092;28;20165;-92
2024/03/22 06:01:53;;;;;;;31.45;9.57;;;;;;;5.66;51.53;94114.09;5094810;28;20077;-92
2024/03/22 06:04:23;;;;;;;25.73;10.75;;;;;;;5.76;51.81;94114.03;5108435;28;20024;-92
2024/03/22 06:09:53;;;;;;;24.33;9.82;;;;;;;5.90;51.32;94108.88;5093531;28;20024;-91
2024/03/22 06:12:22;;;;;;;23.15;8.88;;;;;;;5.93;51.13;94105.69;5091267;28;20054;-92
2024/03/22 06:14:50;;;;;;;29.67;9.80;;;;;;;6.01;50.68;94107.75;5104830;28;20105;-91
2024/03/22 06:18:03;;;;;;;28.38;10.20;;;;;;;6.11;50.66;94109.53;5108756;28;20024;-92
2024/03/22 06:20:30;;;;;;;;;;;;;;;6.18;50.79;94115.28;5090414;28;20053;-89
2024/03/22 06:22:55;;;;;;;31.95;10.25;;;;;;;6.27;50.60;94118.13;5106021;28;19903;-90
2024/03/22 06:25:21;;;;;;;28.80;9.65;;;;;;;6.31;50.45;94102.47;5106061;28;20113;-91
2024/03/22 06:27:46;;;;;;;24.48;10.35;;;;;;;6.44;49.46;94109.75;5105884;28;20263;-91
2024/03/22 06:30:12;;;;;;;26.15;10.75;;;;;;;6.54;49.49;94109.66;5106032;28;20050;-91
2024/03/22 06:32:38;;;;;;;25.63;9.45;;;;;;;6.67;49.41;94110.03;5088200;28;20024;-91
2024/03/22 06:35:05;;;;;;;28.48;9.85;;;;;;;6.81;48.66;94111.72;5087545;28;20055;-86
2024/03/22 06:37:31;;;;;;;25.75;9.75;;;;;;;6.92;48.75;94108.94;5105710;28;20031;-91
2024/03/22 06:39:58;;;;;;;22.02;8.20;;;;;;;7.06;48.10;94109.06;5087159;28;20023;-90
2024/03/22 06:42:24;;;;;;;55.15;10.38;;;;;;;7.16;47.47;94112.34;5104878;28;20020;-91
2024/03/22 06:44:49;;;;;;;27.42;7.90;;;;;;;7.30;46.71;94122.28;5104891;28;20222;-91
2024/03/22 06:47:14;;;;;;;29.33;7.82;;;;;;;7.47;45.94;94116.47;5105399;28;20090;-90
2024/03/22 06:49:40;;;;;;;19.48;7.88;;;;;;;7.57;45.75;94118.97;5087673;28;20199;-88
2024/03/22 06:52:06;;;;;;;21.45;7.70;;;;;;;7.66;45.31;94119.91;5105496;28;20024;-91
2024/03/22 06:54:31;;;;;;;18.48;7.00;;;;;;;7.55;44.63;94126.44;5087239;28;20318;-91
2024/03/22 06:56:56;;;;;;;19.02;6.88;;;;;;;7.71;44.38;94137.63;5087305;28;20058;-91
2024/03/22 06:59:22;;;;;;;22.92;7.72;;;;;;;7.81;44.71;94140.13;5104318;28;20046;-91
2024/03/22 07:01:47;;;;;;;28.15;8.05;;;;;;;7.93;44.35;94137.03;5087285;28;20043;-88
2024/03/22 07:04:13;;;;;;;19.00;7.00;;;;;;;7.94;44.28;94135.97;5105301;28;20073;-92
2024/03/22 07:06:39;;;;;;;21.73;8.23;;;;;;;7.99;44.83;94135.88;5105106;28;20028;-92
2024/03/22 07:09:07;;;;;;;29.98;6.70;;;;;;;8.06;44.39;94143.47;5105509;28;20012;-91
2024/03/22 07:11:32;;;;;;;17.20;7.38;;;;;;;8.08;44.22;94131.50;5105128;28;20027;-91
2024/03/22 07:13:58;;;;;;;19.55;7.90;;;;;;;8.26;43.42;94139.69;5105289;28;20024;-90
2024/03/22 07:16:23;;;;;;;16.13;7.03;;;;;;;8.41;43.57;94140.25;5104899;28;20031;-91
2024/03/22 07:18:49;;;;;;;22.77;7.50;;;;;;;8.54;43.46;94137.91;5105091;28;20076;-92
2024/03/22 07:21:14;;;;;;;24.17;6.82;;;;;;;8.67;43.43;94147.78;5104939;28;20222;-91
2024/03/22 07:23:40;;;;;;;19.77;5.70;;;;;;;8.80;42.93;94138.25;5105006;28;20019;-91
2024/03/22 07:26:07;;;;;;;15.82;5.45;;;;;;;8.93;42.72;94137.44;5086757;28;20306;-91
2024/03/22 07:28:33;;;;;;;17.48;6.15;;;;;;;9.04;42.11;94136.19;5104592;28;20337;-91
2024/03/22 07:30:59;;;;;;;21.05;6.10;;;;;;;9.18;41.60;94136.19;5105375;28;20023;-91
2024/03/22 07:33:24;;;;;;;18.15;5.40;;;;;;;9.26;41.48;94137.38;5087061;28;20023;-91
2024/03/22 07:35:50;;;;;;;9.45;4.70;;;;;;;9.32;41.37;94144.16;5087335;28;20027;-90
2024/03/22 07:38:15;;;;;;;10.70;4.93;;;;;;;9.39;40.92;94136.53;5104866;28;20322;-91
2024/03/22 07:40:41;;;;;;;9.30;4.40;;;;;;;9.50;41.19;94139.00;5086842;28;20322;-90
2024/03/22 07:43:06;;;;;;;20.95;5.25;;;;;;;9.58;41.00;94138.28;5105170;28;20020;-92
2024/03/22 07:45:35;;;;;;;9.00;4.25;;;;;;;9.66;40.77;94139.44;5104683;28;20019;-91
2024/03/22 07:48:01;;;;;;;9.27;4.63;;;;;;;9.61;40.71;94143.03;5104697;28;20068;-91
2024/03/22 07:50:27;;;;;;;15.98;5.13;;;;;;;9.72;41.12;94136.38;5086671;28;20028;-87
2024/03/22 07:52:53;;;;;;;14.63;4.80;;;;;;;9.84;42.45;94144.63;5103942;28;20261;-83
2024/03/22 07:55:18;;;;;;;10.05;4.57;;;;;;;9.99;43.97;94140.03;5085589;28;20036;-88
2024/03/22 07:57:44;;;;;;;7.53;4.03;;;;;;;10.09;42.63;94137.13;5103837;28;20062;-88
2024/03/22 08:00:10;;;;;;;12.02;4.45;;;;;;;10.19;42.23;94152.09;5086526;28;20031;-89
2024/03/22 08:02:35;;;;;;;8.85;4.75;;;;;;;10.24;42.58;94155.41;5104834;28;20043;-90
2024/03/22 08:05:01;;;;;;;10.93;4.30;;;;;;;10.27;41.24;94150.56;5085324;28;20047;-83
2024/03/22 08:07:27;;;;;;;14.60;4.55;;;;;;;10.34;40.74;94150.94;5084829;28;20038;-82
2024/03/22 08:09:55;;;;;;;13.43;4.63;;;;;;;10.46;40.17;94137.84;5085971;28;20119;-85
2024/03/22 08:12:21;;;;;;;8.45;4.32;;;;;;;10.51;39.83;94148.41;5107205;28;20028;-80
2024/03/22 08:14:47;;;;;;;14.43;4.78;;;;;;;10.55;39.59;94148.59;5088993;28;20027;-80
2024/03/22 08:17:12;;;;;;;8.32;4.10;;;;;;;10.62;39.86;94144.41;5107185;28;20032;-82
2024/03/22 08:19:38;;;;;;;18.48;5.30;;;;;;;10.71;39.98;94149.00;5106982;28;20020;-82
2024/03/22 08:22:03;;;;;;;9.82;4.97;;;;;;;10.75;40.14;94142.72;5107186;28;20024;-82
2024/03/22 08:24:29;;;;;;;18.73;5.53;;;;;;;10.76;39.43;94146.94;5106825;28;20273;-84
2024/03/22 08:26:55;;;;;;;15.30;5.00;;;;;;;10.81;38.82;94138.06;5106917;28;20065;-82
2024/03/22 08:29:21;;;;;;;13.40;4.80;;;;;;;10.86;39.65;94148.56;5106823;28;20025;-83
2024/03/22 08:31:46;;;;;;;21.40;5.88;;;;;;;10.92;39.10;94136.69;5106890;28;20130;-82
2024/03/22 08:34:12;;;;;;;8.68;4.28;;;;;;;11.00;39.42;94133.25;5106779;28;20079;-82
2024/03/22 08:36:37;;;;;;;10.85;5.43;;;;;;;11.07;39.13;94134.69;5107013;28;20083;-82
2024/03/22 08:39:03;;;;;;;15.43;5.55;;;;;;;11.12;38.69;94140.69;5107327;28;20038;-82
2024/03/22 08:41:28;;;;;;;7.95;4.40;;;;;;;11.18;37.65;94133.31;5107377;28;20020;-83
2024/03/22 08:43:53;;;;;;;11.45;3.88;;;;;;;11.23;38.53;94135.84;5106889;28;20086;-83
2024/03/22 08:46:21;;;;;;;15.40;4.47;;;;;;;11.29;37.34;94142.59;5106864;28;20306;-82
2024/03/22 08:48:46;;;;;;;10.68;3.60;;;;;;;11.28;37.48;94143.72;5106862;28;20256;-84
2024/03/22 08:51:12;;;;;;;7.68;4.18;;;;;;;11.36;37.64;94147.50;5107114;28;20040;-83
2024/03/22 08:53:38;;;;;;;14.40;4.60;;;;;;;11.38;35.75;94145.31;5088604;28;20020;-84
2024/03/22 08:56:07;;;;;;;12.93;4.40;;;;;;;11.39;36.16;94142.31;5106724;28;20031;-83
2024/03/22 08:58:33;;;;;;;10.85;3.90;;;;;;;11.40;35.95;94138.56;5088157;28;20079;-84
2024/03/22 09:00:58;;;;;;;10.23;3.85;;;;;;;11.49;36.41;94137.78;5088634;28;20020;-84
2024/03/22 09:03:23;;;;;;;17.38;4.15;;;;;;;11.55;36.24;94142.66;5088702;28;20031;-83
2024/03/22 09:05:53;;;;;;;11.48;3.63;;;;;;;11.60;36.10;94144.38;5106863;28;20087;-81
2024/03/22 09:08:19;;;;;;;9.10;4.35;;;;;;;11.62;36.01;94142.19;5106548;28;20058;-83
2024/03/22 09:10:45;;;;;;;8.23;3.55;;;;;;;11.60;35.03;94133.72;5106512;28;20091;-83
2024/03/22 09:13:12;;;;;;;9.52;3.78;;;;;;;11.40;35.15;94130.56;5106279;28;20020;-83
2024/03/22 09:15:37;;;;;;;10.73;3.97;;;;;;;11.32;35.59;94133.97;5105273;28;20024;-83
2024/03/22 09:18:03;;;;;;;8.07;3.67;;;;;;;11.25;36.12;94122.97;5106320;28;20146;-84
2024/03/22 09:20:28;;;;;;;10.43;3.88;;;;;;;11.29;36.64;94123.13;5106379;28;20034;-82
2024/03/22 09:22:54;;;;;;;10.32;4.18;;;;;;;11.39;36.82;94128.19;5105658;28;20016;-83
2024/03/22 09:25:19;;;;;;;8.50;3.33;;;;;;;11.24;36.05;94126.75;5106051;28;20101;-82
2024/03/22 09:27:44;;;;;;;13.70;3.03;;;;;;;11.34;35.61;94126.47;5106277;28;20023;-83
2024/03/22 09:30:10;;;;;;;7.90;2.97;;;;;;;11.49;35.64;94122.56;5105750;28;20020;-81
2024/03/22 09:32:36;;;;;;;13.48;3.78;;;;;;;11.66;35.84;94116.44;5105935;28;20345;-82
2024/03/22 09:35:01;;;;;;;11.50;3.22;;;;;;;11.82;35.07;94117.56;5105608;28;20024;-83
2024/03/22 09:37:26;;;;;;;5.75;3.20;;;;;;;11.92;35.32;94118.38;5106071;28;20241;-83
2024/03/22 09:39:52;;;;;;;5.63;3.13;;;;;;;11.96;34.38;94116.66;5105941;28;20030;-83
2024/03/22 09:42:18;;;;;;;6.38;3.08;;;;;;;12.06;33.96;94112.88;5105679;28;20130;-80
2024/03/22 09:44:48;;;;;;;7.20;3.60;;;;;;;12.12;35.45;94114.28;5105405;28;20060;-83
2024/03/22 09:47:15;;;;;;;6.82;3.22;;;;;;;12.21;35.17;94115.84;5105853;28;20326;-82
2024/03/22 09:49:46;;;;;;;13.35;3.03;;;;;;;12.31;34.39;94105.91;5106029;28;20020;-83
2024/03/22 09:52:15;;;;;;;5.35;2.85;;;;;;;12.40;34.05;94112.03;5106243;28;20035;-82
2024/03/22 09:54:44;;;;;;;6.50;2.75;;;;;;;12.45;33.24;94111.84;5105573;28;20030;-82
2024/03/22 09:57:13;;;;;;;9.80;3.00;;;;;;;12.48;32.90;94116.59;5105281;28;20054;-83
2024/03/22 09:59:39;;;;;;;5.75;2.75;;;;;;;12.49;33.46;94109.34;5105284;28;20020;-80
2024/03/22 10:02:08;;;;;;;5.55;2.85;;;;;;;12.49;33.64;94109.34;5105154;28;20020;-81
2024/03/22 10:04:35;;;;;;;9.23;3.00;;;;;;;12.40;33.25;94106.69;5087208;28;20020;-82
2024/03/22 10:07:02;;;;;;;6.03;2.88;;;;;;;12.31;34.27;94106.69;5105190;28;20074;-83
2024/03/22 10:09:29;;;;;;;5.53;2.40;;;;;;;12.44;34.10;94096.94;5105742;28;20016;-86
2024/03/22 10:11:55;;;;;;;7.22;2.75;;;;;;;12.45;33.51;94107.28;5105397;28;20024;-83
2024/03/22 10:14:21;;;;;;;7.50;2.97;;;;;;;12.30;32.62;94109.72;5105505;28;20114;-81
2024/03/22 10:16:46;;;;;;;9.02;3.33;;;;;;;12.30;33.10;94097.13;5104734;28;20028;-79
2024/03/22 10:19:12;;;;;;;10.52;2.88;;;;;;;12.29;33.42;94103.56;5105006;28;20297;-77
2024/03/22 10:21:37;;;;;;;6.93;2.97;;;;;;;12.29;33.15;94100.09;5104909;28;20031;-78
2024/03/22 10:24:03;;;;;;;9.35;3.13;;;;;;;12.38;34.10;94099.00;5104728;28;20091;-79
2024/03/22 10:26:29;;;;;;;7.50;3.17;;;;;;;12.55;34.70;94102.72;5104928;28;20184;-80
2024/03/22 10:28:54;;;;;;;5.80;2.63;;;;;;;12.69;33.76;94091.81;5104685;28;20087;-77
2024/03/22 10:31:20;;;;;;;6.75;2.85;;;;;;;12.85;33.37;94090.19;5086620;28;20055;-81
2024/03/22 10:33:46;;;;;;;8.70;3.00;;;;;;;13.00;34.20;94081.59;5104285;28;20012;-79
2024/03/22 10:36:13;;;;;;;11.23;3.55;;;;;;;13.11;33.19;94081.25;5103853;28;20044;-78
2024/03/22 10:38:39;;;;;;;5.13;2.42;;;;;;;13.32;33.71;94078.66;5104343;28;20083;-81
2024/03/22 10:41:05;;;;;;;9.32;2.85;;;;;;;13.42;33.43;94068.34;5104387;28;20238;-80
2024/03/22 10:43:31;;;;;;;7.13;3.00;;;;;;;13.56;32.23;94070.00;5104198;28;20096;-82
2024/03/22 10:46:01;;;;;;;5.72;3.08;;;;;;;13.55;32.69;94060.38;5104870;28;20360;-80
2024/03/22 10:48:30;;;;;;;5.85;2.78;;;;;;;13.64;32.71;94066.47;5104810;28;20032;-82
2024/03/22 10:50:59;;;;;;;5.30;2.95;;;;;;;13.68;32.56;94062.03;5104727;28;20261;-81
2024/03/22 10:53:27;;;;;;;5.97;3.15;;;;;;;13.70;31.68;94056.31;5086041;28;20098;-80
2024/03/22 10:55:54;;;;;;;10.35;3.22;;;;;;;13.76;32.25;94046.97;5103891;28;20035;-79
2024/03/22 10:58:24;;;;;;;8.50;3.13;;;;;;;13.86;32.58;94051.97;5104141;28;20115;-82
2024/03/22 11:00:54;;;;;;;10.23;3.65;;;;;;;14.01;32.18;94053.22;5104177;28;20447;-78
2024/03/22 11:03:20;;;;;;;9.00;4.35;;;;;;;14.13;31.45;94049.81;5104304;28;20028;-81
2024/03/22 11:05:53;;;;;;;5.97;2.97;;;;;;;14.11;30.21;94044.00;5104112;28;20024;-80
2024/03/22 11:08:29;;;;;;;8.35;2.88;;;;;;;14.01;31.13;94047.88;5104170;28;20032;-81
2024/03/22 11:10:56;;;;;;;6.47;2.65;;;;;;;14.18;30.63;94041.56;5103843;28;20047;-80
2024/03/22 11:13:22;;;;;;;14.27;3.45;;;;;;;14.36;31.31;94042.94;5103436;28;20028;-79
2024/03/22 11:15:54;;;;;;;5.78;2.90;;;;;;;14.61;31.13;94041.13;5103348;28;20040;-79
2024/03/22 11:18:19;;;;;;;10.63;3.13;;;;;;;14.74;30.62;94035.78;5103716;28;20047;-79
2024/03/22 11:20:45;;;;;;;6.55;3.45;;;;;;;14.89;30.87;94032.41;5103569;28;20356;-77
2024/03/22 11:23:10;;;;;;;8.98;3.53;;;;;;;15.04;30.08;94031.75;5085438;28;20031;-78
2024/03/22 11:25:36;;;;;;;9.98;3.40;;;;;;;15.12;30.33;94032.75;5103616;28;20330;-78
2024/03/22 11:28:02;;;;;;;12.38;3.20;;;;;;;15.17;29.30;94037.09;5085521;28;20138;-79
2024/03/22 11:30:32;;;;;;;8.40;3.05;;;;;;;15.24;29.96;94026.56;5103702;28;20024;-80
2024/03/22 11:33:05;;;;;;;5.10;2.65;;;;;;;15.37;29.63;94030.81;5103527;28;20019;-81